Time;durP1;ratioP1;P1;durP2;ratioP2;P2;SDS_P1;SDS_P2;PMS_P1;PMS_P2;Temp;Humidity;BMP_temperature;BMP_pressure;BME280_temperature;BME280_humidity;BME280_pressure;Samples;Min_cycle;Max_cycle;Signal;HPM_P1;HPM_P2
2023/03/29 00:01:02;;;;;;;12.48;7.82;;;6.60;99.90;;;;;;4978067;28;20143;-56
2023/03/29 00:03:29;;;;;;;10.80;7.22;;;6.60;99.90;;;;;;4977412;28;20046;-56
2023/03/29 00:06:04;;;;;;;14.35;7.28;;;6.50;99.90;;;;;;4984236;28;20125;-56
2023/03/29 00:08:32;;;;;;;9.38;5.70;;;6.50;99.90;;;;;;4975849;28;20066;-55
2023/03/29 00:10:59;;;;;;;10.75;5.82;;;6.50;99.90;;;;;;4977402;28;20254;-55
2023/03/29 00:13:26;;;;;;;10.20;5.95;;;6.50;99.90;;;;;;4977727;28;20073;-56
2023/03/29 00:15:53;;;;;;;12.10;6.32;;;6.60;99.90;;;;;;4977920;28;20122;-56
2023/03/29 00:18:19;;;;;;;12.02;6.60;;;6.60;99.90;;;;;;4978918;28;20490;-56
2023/03/29 00:20:44;;;;;;;11.80;6.80;;;6.70;99.90;;;;;;4983022;28;20508;-55
2023/03/29 00:23:10;;;;;;;12.43;6.72;;;6.60;99.90;;;;;;4977476;28;20042;-56
2023/03/29 00:25:36;;;;;;;14.50;7.35;;;6.60;99.90;;;;;;4978001;28;20030;-56
2023/03/29 00:28:02;;;;;;;14.85;6.78;;;6.80;99.90;;;;;;4976352;28;20046;-56
2023/03/29 00:30:27;;;;;;;9.85;6.53;;;6.70;99.90;;;;;;4974411;28;20046;-56
2023/03/29 00:32:53;;;;;;;10.27;6.70;;;6.70;99.90;;;;;;4977035;28;20091;-56
2023/03/29 00:35:18;;;;;;;9.27;7.05;;;6.80;99.90;;;;;;4977525;28;20053;-56
2023/03/29 00:37:46;;;;;;;12.18;7.22;;;6.90;99.90;;;;;;4978216;28;20390;-56
2023/03/29 00:40:14;;;;;;;10.98;6.82;;;6.90;99.90;;;;;;4981906;28;20560;-56
2023/03/29 00:42:43;;;;;;;9.00;6.82;;;6.80;99.90;;;;;;4984724;28;20042;-56
2023/03/29 00:45:08;;;;;;;11.02;6.40;;;6.90;99.90;;;;;;4979605;28;20046;-56
2023/03/29 00:47:34;;;;;;;11.63;6.40;;;6.80;99.90;;;;;;4980712;28;20459;-61
2023/03/29 00:50:08;;;;;;;8.88;6.28;;;6.70;99.90;;;;;;4982341;28;20038;-56
2023/03/29 00:52:35;;;;;;;11.10;5.88;;;6.80;99.90;;;;;;4975993;28;20046;-56
2023/03/29 00:55:05;;;;;;;10.18;5.35;;;6.80;99.90;;;;;;4981128;28;20064;-57
2023/03/29 00:57:32;;;;;;;8.05;5.75;;;6.70;99.90;;;;;;4981233;28;20054;-56
2023/03/29 01:00:00;;;;;;;10.38;5.82;;;6.60;99.90;;;;;;4979629;28;20549;-56
2023/03/29 01:02:28;;;;;;;10.57;5.78;;;6.70;99.90;;;;;;4981111;28;20593;-56
2023/03/29 01:04:58;;;;;;;9.95;5.97;;;6.70;99.90;;;;;;4978230;28;20501;-56
2023/03/29 01:07:34;;;;;;;8.05;6.13;;;6.70;99.90;;;;;;4974577;28;20475;-55
2023/03/29 01:10:05;;;;;;;9.20;5.55;;;6.70;99.90;;;;;;4980541;28;20052;-56
2023/03/29 01:12:37;;;;;;;9.55;5.13;;;6.80;99.90;;;;;;4985828;28;20058;-56
2023/03/29 01:15:09;;;;;;;7.85;4.65;;;6.70;99.90;;;;;;4981423;28;20414;-55
2023/03/29 01:17:34;;;;;;;8.63;4.38;;;6.60;99.90;;;;;;4976056;28;20562;-55
2023/03/29 01:20:13;;;;;;;8.18;4.60;;;6.70;99.90;;;;;;4980645;28;20034;-55
2023/03/29 01:22:59;;;;;;;8.73;4.78;;;6.70;99.90;;;;;;4980983;28;20309;-55
2023/03/29 01:25:28;;;;;;;8.57;4.22;;;6.90;99.90;;;;;;4972625;28;20066;-56
2023/03/29 01:28:05;;;;;;;10.52;5.63;;;7.00;99.90;;;;;;4980478;28;20026;-56
2023/03/29 01:30:48;;;;;;;8.77;4.70;;;7.10;99.90;;;;;;4984881;28;20441;-56
2023/03/29 01:33:22;;;;;;;6.67;3.50;;;7.00;99.90;;;;;;4970305;28;20045;-56
2023/03/29 01:35:56;;;;;;;6.97;4.82;;;7.00;99.90;;;;;;4981050;28;20278;-56
2023/03/29 01:38:29;;;;;;;6.72;4.43;;;6.90;99.90;;;;;;4980731;28;20042;-56
2023/03/29 01:40:54;;;;;;;8.55;4.82;;;7.10;99.90;;;;;;4980607;28;20073;-56
2023/03/29 01:43:31;;;;;;;10.90;5.32;;;7.10;99.90;;;;;;4979941;28;20490;-56
2023/03/29 01:46:00;;;;;;;9.20;5.45;;;7.00;99.90;;;;;;4961479;28;20241;-56
2023/03/29 01:48:46;;;;;;;9.05;5.28;;;7.00;99.90;;;;;;4980164;28;20030;-55
2023/03/29 01:51:25;;;;;;;7.95;5.28;;;7.00;99.90;;;;;;4978170;28;20092;-56
2023/03/29 01:54:14;;;;;;;7.35;5.30;;;7.10;99.90;;;;;;4980850;28;20484;-56
2023/03/29 01:56:43;;;;;;;9.18;5.20;;;7.00;99.90;;;;;;4973103;28;20042;-56
2023/03/29 01:59:17;;;;;;;9.07;5.40;;;6.80;99.90;;;;;;4980107;28;20096;-55
2023/03/29 02:01:48;;;;;;;8.35;5.38;;;6.80;99.90;;;;;;4981099;28;20153;-56
2023/03/29 02:04:21;;;;;;;6.78;5.35;;;6.90;99.90;;;;;;4980289;28;20558;-56
2023/03/29 02:06:49;;;;;;;9.15;4.97;;;7.00;99.90;;;;;;4979790;28;20225;-56
2023/03/29 02:09:15;;;;;;;8.13;5.43;;;7.00;99.90;;;;;;4980041;28;20030;-56
2023/03/29 02:11:43;;;;;;;9.68;5.80;;;7.00;99.90;;;;;;4982348;28;20486;-56
2023/03/29 02:14:09;;;;;;;7.82;5.07;;;7.00;99.90;;;;;;4979665;28;20049;-56
2023/03/29 02:16:37;;;;;;;7.38;5.60;;;7.00;99.90;;;;;;4979883;28;20042;-56
2023/03/29 02:19:04;;;;;;;7.78;5.88;;;7.00;99.90;;;;;;4978535;28;20535;-56
2023/03/29 02:21:41;;;;;;;8.60;5.38;;;7.10;99.90;;;;;;4970347;28;20462;-56
2023/03/29 02:24:10;;;;;;;8.52;5.47;;;7.00;99.90;;;;;;4979003;28;20264;-56
2023/03/29 02:26:36;;;;;;;9.13;5.45;;;7.10;99.90;;;;;;4979002;28;20408;-56
2023/03/29 02:29:02;;;;;;;8.93;5.75;;;7.20;99.90;;;;;;4978171;28;20042;-56
2023/03/29 02:31:43;;;;;;;8.13;4.88;;;7.00;99.90;;;;;;4976282;28;20733;-55
2023/03/29 02:34:14;;;;;;;10.32;5.22;;;7.00;99.90;;;;;;4978090;28;20042;-56
2023/03/29 02:36:45;;;;;;;10.25;5.25;;;6.90;99.90;;;;;;4978753;28;20496;-56
2023/03/29 02:39:14;;;;;;;9.07;4.97;;;6.90;99.90;;;;;;4974020;28;20058;-56
2023/03/29 02:41:42;;;;;;;9.77;4.97;;;7.20;99.90;;;;;;4976032;28;20454;-55
2023/03/29 02:44:12;;;;;;;9.35;5.07;;;7.20;99.90;;;;;;4979522;28;20080;-55
2023/03/29 02:46:41;;;;;;;10.23;4.60;;;7.20;99.90;;;;;;4979257;28;20354;-56
2023/03/29 02:49:08;;;;;;;7.28;3.92;;;7.10;99.90;;;;;;4977906;28;20423;-56
2023/03/29 02:51:35;;;;;;;9.35;3.88;;;7.00;99.90;;;;;;4979862;28;20068;-56
2023/03/29 02:54:12;;;;;;;9.85;4.18;;;6.80;99.90;;;;;;4980151;28;20113;-55
2023/03/29 02:56:47;;;;;;;5.07;3.45;;;6.90;99.90;;;;;;4974420;28;20134;-56
2023/03/29 02:59:13;;;;;;;5.50;3.60;;;7.00;99.90;;;;;;4978580;28;20049;-56
2023/03/29 03:01:41;;;;;;;6.15;3.60;;;6.90;99.90;;;;;;4978183;28;20046;-56
2023/03/29 03:04:10;;;;;;;5.75;3.38;;;6.90;99.90;;;;;;4983318;28;20076;-55
2023/03/29 03:06:37;;;;;;;6.97;3.42;;;7.00;99.90;;;;;;4978439;28;20077;-55
2023/03/29 03:09:03;;;;;;;6.70;3.42;;;7.20;99.90;;;;;;4978804;28;20049;-56
2023/03/29 03:11:30;;;;;;;5.95;3.60;;;7.30;99.90;;;;;;4975689;28;20054;-55
2023/03/29 03:13:55;;;;;;;5.50;3.35;;;7.20;99.90;;;;;;4977144;28;20037;-55
2023/03/29 03:16:21;;;;;;;7.10;3.65;;;7.10;99.90;;;;;;4978870;28;20039;-55
2023/03/29 03:18:49;;;;;;;6.95;3.63;;;7.20;99.90;;;;;;4992809;28;20872;-56
2023/03/29 03:21:14;;;;;;;10.15;3.90;;;7.10;99.90;;;;;;4976509;28;20046;-55
2023/03/29 03:23:40;;;;;;;6.93;3.60;;;7.00;99.90;;;;;;4977929;28;20060;-56
2023/03/29 03:26:07;;;;;;;6.55;3.67;;;7.10;99.90;;;;;;4983263;28;20505;-56
2023/03/29 03:28:33;;;;;;;7.88;3.70;;;7.20;99.90;;;;;;4979912;28;20149;-55
2023/03/29 03:30:58;;;;;;;6.50;3.55;;;7.40;99.90;;;;;;4978315;28;20133;-56
2023/03/29 03:33:25;;;;;;;7.85;3.97;;;7.40;99.90;;;;;;4977822;28;20046;-56
2023/03/29 03:35:51;;;;;;;8.30;4.10;;;7.30;99.90;;;;;;4977924;28;20228;-55
2023/03/29 03:38:17;;;;;;;5.65;3.63;;;7.20;99.90;;;;;;4978374;28;20227;-55
2023/03/29 03:40:42;;;;;;;6.80;3.65;;;7.30;99.90;;;;;;4978145;28;20049;-55
2023/03/29 03:43:08;;;;;;;6.50;3.65;;;7.20;99.90;;;;;;4978664;28;20045;-56
2023/03/29 03:45:34;;;;;;;8.95;3.90;;;7.20;99.90;;;;;;4985076;28;20046;-56
2023/03/29 03:48:00;;;;;;;6.35;3.63;;;7.30;99.90;;;;;;4978322;28;20058;-56
2023/03/29 03:50:25;;;;;;;8.88;3.63;;;7.20;99.90;;;;;;4977276;28;20442;-56
2023/03/29 03:52:51;;;;;;;5.40;3.80;;;7.20;99.90;;;;;;4980860;28;20113;-56
2023/03/29 03:55:17;;;;;;;8.00;3.88;;;7.20;99.90;;;;;;4972889;28;20093;-56
2023/03/29 03:57:42;;;;;;;8.18;3.88;;;7.20;99.90;;;;;;4978110;28;20093;-56
2023/03/29 04:00:17;;;;;;;7.25;4.05;;;7.10;99.90;;;;;;4977937;28;20109;-56
2023/03/29 04:02:44;;;;;;;7.35;4.15;;;7.30;99.90;;;;;;4978302;28;20153;-56
2023/03/29 04:05:10;;;;;;;6.18;3.58;;;7.10;99.90;;;;;;4977586;28;20576;-56
2023/03/29 04:07:35;;;;;;;5.45;3.53;;;7.00;99.90;;;;;;4977658;28;20164;-56
2023/03/29 04:10:01;;;;;;;8.57;4.25;;;6.90;99.90;;;;;;4978872;28;20038;-56
2023/03/29 04:12:26;;;;;;;8.82;3.90;;;6.90;99.90;;;;;;4978871;28;20726;-55
2023/03/29 04:14:52;;;;;;;8.45;4.30;;;6.80;99.90;;;;;;4974829;28;20406;-56
2023/03/29 04:17:18;;;;;;;8.30;4.47;;;6.70;99.90;;;;;;4981969;28;20558;-56
2023/03/29 04:19:43;;;;;;;8.10;4.18;;;6.60;99.90;;;;;;4984989;28;20512;-56
2023/03/29 04:22:09;;;;;;;9.85;4.57;;;6.70;99.90;;;;;;4981077;28;20057;-56
2023/03/29 04:24:34;;;;;;;8.82;4.20;;;6.90;99.90;;;;;;4981764;28;20038;-56
2023/03/29 04:27:00;;;;;;;7.78;4.82;;;7.20;99.90;;;;;;4977446;28;20394;-57
2023/03/29 04:29:26;;;;;;;9.38;5.20;;;7.20;99.90;;;;;;4983903;28;20167;-57
2023/03/29 04:31:51;;;;;;;9.80;5.40;;;7.10;99.90;;;;;;4980787;28;20034;-57
2023/03/29 04:34:17;;;;;;;8.32;4.68;;;7.20;99.90;;;;;;4976146;28;20045;-56
2023/03/29 04:36:42;;;;;;;8.60;5.18;;;7.10;99.90;;;;;;4983697;28;20037;-56
2023/03/29 04:39:08;;;;;;;11.65;5.82;;;7.10;99.90;;;;;;4983053;28;20083;-56
2023/03/29 04:41:34;;;;;;;11.18;5.35;;;7.10;99.90;;;;;;4981965;28;20030;-56
2023/03/29 04:44:02;;;;;;;8.88;5.30;;;7.20;99.90;;;;;;4982295;28;20803;-57
2023/03/29 04:46:28;;;;;;;8.27;5.05;;;7.20;99.90;;;;;;4981103;28;20088;-56
2023/03/29 04:48:53;;;;;;;8.57;5.63;;;7.20;99.90;;;;;;4981715;28;20042;-57
2023/03/29 04:51:21;;;;;;;9.65;5.80;;;7.30;99.90;;;;;;4976991;28;20038;-56
2023/03/29 04:53:48;;;;;;;9.75;5.45;;;7.30;99.90;;;;;;4981025;28;20141;-56
2023/03/29 04:56:15;;;;;;;8.15;5.60;;;7.20;99.90;;;;;;4977578;28;20345;-57
2023/03/29 04:58:41;;;;;;;9.25;6.32;;;7.30;99.90;;;;;;4981823;28;20042;-56
2023/03/29 05:01:06;;;;;;;10.35;6.20;;;7.40;99.90;;;;;;4981386;28;20109;-57
2023/03/29 05:03:33;;;;;;;10.52;6.22;;;7.50;99.90;;;;;;4984984;28;20066;-56
2023/03/29 05:06:05;;;;;;;11.43;6.78;;;7.50;99.90;;;;;;4985217;28;20544;-56
2023/03/29 05:08:32;;;;;;;11.57;6.90;;;7.30;99.90;;;;;;4982496;28;20403;-56
2023/03/29 05:10:57;;;;;;;12.45;6.80;;;7.00;99.90;;;;;;4984858;28;20050;-55
2023/03/29 05:13:23;;;;;;;9.57;6.32;;;7.20;99.90;;;;;;4980169;28;20304;-55
2023/03/29 05:15:48;;;;;;;8.90;6.65;;;7.50;99.90;;;;;;4980237;28;20058;-56
2023/03/29 05:18:14;;;;;;;11.55;6.68;;;7.40;99.90;;;;;;4983606;28;20801;-56
2023/03/29 05:20:41;;;;;;;11.50;7.35;;;7.40;99.90;;;;;;4984433;28;20120;-55
2023/03/29 05:23:06;;;;;;;10.95;6.82;;;7.30;99.90;;;;;;4980655;28;20138;-55
2023/03/29 05:25:32;;;;;;;11.98;6.63;;;7.10;99.90;;;;;;4979186;28;20173;-56
2023/03/29 05:27:58;;;;;;;9.70;7.15;;;7.10;99.90;;;;;;4983802;28;20049;-55
2023/03/29 05:30:24;;;;;;;11.88;7.05;;;7.00;99.90;;;;;;4978281;28;20034;-55
2023/03/29 05:32:49;;;;;;;9.65;6.80;;;7.20;99.90;;;;;;4977430;28;20045;-56
2023/03/29 05:35:15;;;;;;;11.57;7.57;;;7.40;99.90;;;;;;4975801;28;20038;-56
2023/03/29 05:37:41;;;;;;;11.27;7.75;;;7.30;99.90;;;;;;4967960;28;20047;-55
2023/03/29 05:40:08;;;;;;;13.88;7.13;;;7.40;99.90;;;;;;4979531;28;20034;-55
2023/03/29 05:42:34;;;;;;;11.40;7.45;;;7.40;99.90;;;;;;4977603;28;20043;-55
2023/03/29 05:45:00;;;;;;;14.30;7.72;;;7.30;99.90;;;;;;4978260;28;20074;-55
2023/03/29 05:47:27;;;;;;;15.90;7.90;;;7.30;99.90;;;;;;4977868;28;20030;-55
2023/03/29 05:49:52;;;;;;;11.20;7.03;;;7.20;99.90;;;;;;4977121;28;20031;-55
2023/03/29 05:52:18;;;;;;;18.08;7.53;;;7.20;99.90;;;;;;4980077;28;20254;-55
2023/03/29 05:54:44;;;;;;;12.10;7.00;;;7.20;99.90;;;;;;4978260;28;20034;-55
2023/03/29 05:57:10;;;;;;;15.88;7.80;;;7.20;99.90;;;;;;4977152;28;20042;-55
2023/03/29 05:59:35;;;;;;;10.10;7.03;;;7.50;99.90;;;;;;4979891;28;20046;-55
2023/03/29 06:02:03;;;;;;;13.43;7.43;;;7.60;99.90;;;;;;4980145;28;20592;-55
2023/03/29 06:04:30;;;;;;;11.60;7.05;;;7.50;99.90;;;;;;4975429;28;20451;-56
2023/03/29 06:06:56;;;;;;;13.55;7.18;;;7.40;99.90;;;;;;4978700;28;20038;-55
2023/03/29 06:09:21;;;;;;;12.90;7.55;;;7.50;99.90;;;;;;4976608;28;20046;-55
2023/03/29 06:11:47;;;;;;;14.40;7.28;;;7.70;99.90;;;;;;4976565;28;20056;-55
2023/03/29 06:14:13;;;;;;;14.65;7.13;;;7.70;99.90;;;;;;4968650;28;20045;-55
2023/03/29 06:16:39;;;;;;;12.02;6.88;;;7.60;99.90;;;;;;4977272;28;20104;-55
2023/03/29 06:19:06;;;;;;;12.35;6.60;;;7.60;99.90;;;;;;4971663;28;20042;-56
2023/03/29 06:21:32;;;;;;;12.73;6.40;;;7.60;99.90;;;;;;4973736;28;20038;-55
2023/03/29 06:23:58;;;;;;;13.10;7.07;;;7.70;99.90;;;;;;4973215;28;20073;-58
2023/03/29 06:26:26;;;;;;;10.73;6.78;;;7.70;99.90;;;;;;4980695;28;20038;-55
2023/03/29 06:28:52;;;;;;;13.20;6.55;;;7.70;99.90;;;;;;4980772;28;20034;-55
2023/03/29 06:31:18;;;;;;;11.70;6.78;;;7.70;99.90;;;;;;4971759;28;20088;-55
2023/03/29 06:33:44;;;;;;;9.90;6.38;;;7.70;99.90;;;;;;4977120;28;20451;-55
2023/03/29 06:36:10;;;;;;;10.70;6.30;;;7.80;99.90;;;;;;4976961;28;20049;-55
2023/03/29 06:38:36;;;;;;;9.52;6.18;;;7.70;99.90;;;;;;4978674;28;20333;-55
2023/03/29 06:41:04;;;;;;;11.48;6.22;;;7.70;99.90;;;;;;4974547;28;20500;-55
2023/03/29 06:43:31;;;;;;;9.25;6.45;;;7.90;99.90;;;;;;4977230;28;20086;-55
2023/03/29 06:45:57;;;;;;;12.10;6.43;;;7.80;99.90;;;;;;4972871;28;20085;-55
2023/03/29 06:48:23;;;;;;;10.23;6.35;;;8.00;99.90;;;;;;4974818;28;20524;-55
2023/03/29 06:50:49;;;;;;;9.77;5.88;;;7.90;99.90;;;;;;4982523;28;20034;-55
2023/03/29 06:53:15;;;;;;;10.23;6.00;;;7.90;99.90;;;;;;4975933;28;20710;-55
2023/03/29 06:55:41;;;;;;;11.02;5.70;;;8.00;99.90;;;;;;4969491;28;20133;-55
2023/03/29 06:58:08;;;;;;;14.10;5.75;;;7.90;99.90;;;;;;4977170;28;20125;-55
2023/03/29 07:00:36;;;;;;;10.38;5.85;;;7.90;99.90;;;;;;4982170;28;20058;-55
2023/03/29 07:03:05;;;;;;;9.23;5.50;;;8.00;99.90;;;;;;4977081;28;20457;-55
2023/03/29 07:05:32;;;;;;;8.32;4.95;;;8.00;99.90;;;;;;4970952;28;20054;-56
2023/03/29 07:08:10;;;;;;;10.77;5.88;;;8.10;99.90;;;;;;4977640;28;20034;-55
2023/03/29 07:10:38;;;;;;;9.93;5.10;;;8.10;99.90;;;;;;4979156;28;20030;-55
2023/03/29 07:13:09;;;;;;;7.60;4.90;;;8.10;99.90;;;;;;4973642;28;20137;-55
2023/03/29 07:15:35;;;;;;;10.70;5.15;;;8.20;99.90;;;;;;4976371;28;20111;-55
2023/03/29 07:18:03;;;;;;;7.43;4.65;;;8.20;99.90;;;;;;4976787;28;20414;-55
2023/03/29 07:20:29;;;;;;;9.18;4.68;;;8.30;99.90;;;;;;4984703;28;20298;-55
2023/03/29 07:22:56;;;;;;;7.13;4.90;;;8.20;99.90;;;;;;4980266;28;20504;-55
2023/03/29 07:25:23;;;;;;;8.95;4.65;;;8.30;99.90;;;;;;4975610;28;20045;-55
2023/03/29 07:27:50;;;;;;;7.43;4.97;;;8.30;99.90;;;;;;4975213;28;20471;-55
2023/03/29 07:30:22;;;;;;;9.32;4.75;;;8.50;99.90;;;;;;4978253;28;20046;-55
2023/03/29 07:32:49;;;;;;;7.10;4.43;;;8.60;99.90;;;;;;4976813;28;20289;-55
2023/03/29 07:35:16;;;;;;;9.68;5.05;;;8.50;96.20;;;;;;4973919;28;20648;-55
2023/03/29 07:37:43;;;;;;;11.15;5.10;;;8.60;95.20;;;;;;4976977;28;20060;-55
2023/03/29 07:40:15;;;;;;;7.88;4.20;;;8.60;96.80;;;;;;4970062;28;20071;-55
2023/03/29 07:42:44;;;;;;;8.52;4.18;;;8.50;82.50;;;;;;4965127;28;20141;-55
2023/03/29 07:45:12;;;;;;;6.43;4.30;;;8.50;97.30;;;;;;4972454;28;20049;-55
2023/03/29 07:47:39;;;;;;;8.35;4.38;;;8.60;99.90;;;;;;4976395;28;20073;-55
2023/03/29 07:50:06;;;;;;;7.80;4.43;;;8.60;99.90;;;;;;4983534;28;20534;-56
2023/03/29 07:52:32;;;;;;;6.63;4.30;;;8.60;99.90;;;;;;4982643;28;20034;-55
2023/03/29 07:54:57;;;;;;;6.97;4.45;;;8.60;99.90;;;;;;4981673;28;20176;-55
2023/03/29 07:57:25;;;;;;;11.13;4.85;;;8.60;99.90;;;;;;4983645;28;20129;-55
2023/03/29 07:59:51;;;;;;;10.05;4.75;;;8.50;99.90;;;;;;4983063;28;20030;-55
2023/03/29 08:02:16;;;;;;;7.13;4.75;;;8.50;99.90;;;;;;4979827;28;20101;-55
2023/03/29 08:04:42;;;;;;;10.65;5.57;;;8.70;99.90;;;;;;4983918;28;20050;-55
2023/03/29 08:07:08;;;;;;;9.68;4.85;;;8.90;99.90;;;;;;4978255;28;20026;-56
2023/03/29 08:09:33;;;;;;;7.10;4.72;;;9.10;99.90;;;;;;4983978;28;20065;-55
2023/03/29 08:11:59;;;;;;;9.82;4.80;;;9.00;99.40;;;;;;4983941;28;20129;-55
2023/03/29 08:14:24;;;;;;;8.20;4.97;;;9.10;99.10;;;;;;4975922;28;20194;-55
2023/03/29 08:16:51;;;;;;;9.02;4.80;;;9.10;99.90;;;;;;4978958;28;20069;-55
2023/03/29 08:19:17;;;;;;;9.25;4.85;;;9.20;93.80;;;;;;4982320;28;20505;-55
2023/03/29 08:21:43;;;;;;;7.93;4.55;;;9.30;77.00;;;;;;4970691;28;20062;-55
2023/03/29 08:24:08;;;;;;;8.82;5.40;;;9.30;85.10;;;;;;4981782;28;20046;-55
2023/03/29 08:26:34;;;;;;;9.43;4.70;;;9.40;71.80;;;;;;4982155;28;20042;-55
2023/03/29 08:29:00;;;;;;;6.90;5.00;;;9.50;68.30;;;;;;4978912;28;20502;-55
2023/03/29 08:31:25;;;;;;;9.43;4.95;;;9.60;43.00;;;;;;4981747;28;20042;-55
2023/03/29 08:33:52;;;;;;;8.32;4.45;;;9.70;54.40;;;;;;4973675;28;20752;-55
2023/03/29 08:36:17;;;;;;;8.45;4.57;;;9.60;67.70;;;;;;4983250;28;20042;-56
2023/03/29 08:38:44;;;;;;;11.65;5.10;;;9.60;94.60;;;;;;4981886;28;20148;-55
2023/03/29 08:41:45;;;;;;;8.38;4.35;;;9.50;99.90;;;;;;4983749;28;20038;-55
2023/03/29 08:44:23;;;;;;;10.43;5.10;;;9.60;99.90;;;;;;4977889;28;20046;-55
2023/03/29 08:47:13;;;;;;;12.38;4.50;;;9.50;99.90;;;;;;4978060;28;20072;-55
2023/03/29 08:49:42;;;;;;;9.07;4.50;;;9.50;99.90;;;;;;4976195;28;20431;-55
2023/03/29 08:52:26;;;;;;;8.45;4.80;;;9.60;99.90;;;;;;4986145;28;20038;-55
2023/03/29 08:54:54;;;;;;;8.68;4.60;;;9.70;99.90;;;;;;4980082;28;20140;-55
2023/03/29 08:57:34;;;;;;;9.32;4.45;;;9.80;99.90;;;;;;4995151;28;20450;-55
2023/03/29 09:00:04;;;;;;;7.97;4.10;;;9.50;99.90;;;;;;4983988;28;20442;-55
2023/03/29 09:02:33;;;;;;;10.02;5.03;;;10.10;99.90;;;;;;4978753;28;20072;-55
2023/03/29 09:05:27;;;;;;;10.32;4.75;;;10.20;99.90;;;;;;4979237;28;20494;-55
2023/03/29 09:07:53;;;;;;;9.18;4.40;;;10.20;99.80;;;;;;4974465;28;20160;-55
2023/03/29 09:10:21;;;;;;;10.45;4.72;;;10.20;86.40;;;;;;4984917;28;20030;-55
2023/03/29 09:13:10;;;;;;;8.55;4.43;;;10.20;99.90;;;;;;4983841;28;20477;-55
2023/03/29 09:15:44;;;;;;;9.48;5.03;;;10.30;99.90;;;;;;4975789;28;20487;-55
2023/03/29 09:18:25;;;;;;;9.45;4.95;;;10.40;99.90;;;;;;4975837;28;20582;-56
2023/03/29 09:21:04;;;;;;;8.77;4.63;;;10.50;94.20;;;;;;4979049;28;20673;-55
2023/03/29 09:23:48;;;;;;;11.00;5.03;;;10.60;62.10;;;;;;4976186;28;20053;-55
2023/03/29 09:26:39;;;;;;;9.50;4.90;;;10.60;31.90;;;;;;4972386;28;20140;-56
2023/03/29 09:29:22;;;;;;;10.98;4.93;;;10.80;14.20;;;;;;4977056;28;20552;-55
2023/03/29 09:31:48;;;;;;;11.60;4.93;;;10.70;25.40;;;;;;4977530;28;20041;-55
2023/03/29 09:34:35;;;;;;;10.38;4.75;;;10.80;2.10;;;;;;4974108;28;20367;-55
2023/03/29 09:37:20;;;;;;;11.70;4.80;;;11.00;8.10;;;;;;4979208;28;20038;-55
2023/03/29 09:39:48;;;;;;;9.82;5.05;;;11.00;1.00;;;;;;4977579;28;20046;-55
2023/03/29 09:42:15;;;;;;;8.77;4.80;;;11.10;7.10;;;;;;4981391;28;20152;-55
2023/03/29 09:44:46;;;;;;;9.85;4.63;;;11.20;1.00;;;;;;4979888;28;20038;-55
2023/03/29 09:47:20;;;;;;;10.60;4.63;;;11.30;1.00;;;;;;4978449;28;20371;-55
2023/03/29 09:49:51;;;;;;;11.60;4.28;;;11.40;1.00;;;;;;4975284;28;20125;-56
2023/03/29 09:52:18;;;;;;;9.60;4.18;;;11.40;1.00;;;;;;4983775;28;20239;-55
2023/03/29 09:54:44;;;;;;;9.73;4.65;;;11.60;1.00;;;;;;4972156;28;20485;-56
2023/03/29 09:57:12;;;;;;;9.23;4.35;;;11.80;1.00;;;;;;4978275;28;20116;-56
2023/03/29 09:59:39;;;;;;;7.53;4.18;;;12.00;1.00;;;;;;4980053;28;20294;-56
2023/03/29 10:02:07;;;;;;;8.55;4.63;;;12.00;1.00;;;;;;4978991;28;20518;-55
2023/03/29 10:04:33;;;;;;;7.90;4.40;;;12.10;1.00;;;;;;4979667;28;20038;-56
2023/03/29 10:06:59;;;;;;;9.48;4.10;;;12.20;1.00;;;;;;4973904;28;20054;-55
2023/03/29 10:09:28;;;;;;;8.45;4.40;;;12.10;1.00;;;;;;4984264;28;20039;-56
2023/03/29 10:11:56;;;;;;;10.75;4.60;;;12.10;1.00;;;;;;4979509;28;20041;-56
2023/03/29 10:14:33;;;;;;;7.95;4.32;;;12.30;1.00;;;;;;4979413;28;20068;-56
2023/03/29 10:16:59;;;;;;;6.30;3.78;;;12.60;1.00;;;;;;4977971;28;20054;-56
2023/03/29 10:19:34;;;;;;;7.22;4.35;;;12.80;1.00;;;;;;4978371;28;20679;-56
2023/03/29 10:22:06;;;;;;;8.95;4.40;;;12.70;1.00;;;;;;4969064;28;20461;-56
2023/03/29 10:24:32;;;;;;;6.85;4.22;;;12.50;1.00;;;;;;4977611;28;20497;-56
2023/03/29 10:27:08;;;;;;;10.15;4.40;;;12.30;1.00;;;;;;4977449;28;20057;-56
2023/03/29 10:29:37;;;;;;;24.13;13.35;;;12.20;1.00;;;;;;4975326;28;20467;-56
2023/03/29 10:32:14;;;;;;;20.05;10.02;;;12.30;1.00;;;;;;4974130;28;20216;-56
2023/03/29 10:34:40;;;;;;;10.10;4.30;;;12.40;1.00;;;;;;4976787;28;20038;-56
2023/03/29 10:37:09;;;;;;;8.38;4.15;;;12.50;1.00;;;;;;4977574;28;20132;-56
2023/03/29 10:39:35;;;;;;;7.47;4.15;;;12.50;1.00;;;;;;4979319;28;20035;-57
2023/03/29 10:42:02;;;;;;;9.25;4.07;;;12.60;1.00;;;;;;4983169;28;20034;-57
2023/03/29 10:44:31;;;;;;;7.32;3.67;;;12.70;1.00;;;;;;4976156;28;20079;-57
2023/03/29 10:47:08;;;;;;;10.75;4.18;;;12.90;1.00;;;;;;4974587;28;20062;-56
2023/03/29 10:49:40;;;;;;;7.70;3.40;;;13.10;1.00;;;;;;4968508;28;20116;-57
2023/03/29 10:52:08;;;;;;;6.80;3.47;;;13.30;1.00;;;;;;4974241;28;20046;-57
2023/03/29 10:54:33;;;;;;;8.15;3.47;;;13.50;1.00;;;;;;4975751;28;20195;-57
2023/03/29 10:57:05;;;;;;;6.32;3.20;;;13.50;1.00;;;;;;4975367;28;20489;-56
2023/03/29 10:59:52;;;;;;;8.30;3.40;;;13.50;99.90;;;;;;4974224;28;20192;-57
2023/03/29 11:02:35;;;;;;;6.45;3.60;;;13.50;1.00;;;;;;4976504;28;20046;-56
2023/03/29 11:05:09;;;;;;;6.63;3.20;;;13.50;99.90;;;;;;4978253;28;20036;-57
2023/03/29 11:07:55;;;;;;;9.30;5.53;;;13.50;99.90;;;;;;4970687;28;20050;-57
2023/03/29 11:10:34;;;;;;;6.30;2.90;;;13.60;99.90;;;;;;4977529;28;20528;-59
2023/03/29 11:13:11;;;;;;;6.90;3.00;;;13.50;99.90;;;;;;4976782;28;20045;-57
2023/03/29 11:16:09;;;;;;;5.63;3.15;;;13.50;99.90;;;;;;4966838;28;20156;-58
2023/03/29 11:19:16;;;;;;;9.02;3.13;;;13.60;99.90;;;;;;4978306;28;20050;-58
2023/03/29 11:21:58;;;;;;;8.75;3.72;;;13.70;99.90;;;;;;4972639;28;20038;-57
2023/03/29 11:24:49;;;;;;;4.53;2.92;;;13.70;99.90;;;;;;4969371;28;20050;-57
2023/03/29 11:27:40;;;;;;;8.18;3.45;;;13.70;99.90;;;;;;4976008;28;20030;-57
2023/03/29 11:30:08;;;;;;;7.03;2.92;;;13.80;99.90;;;;;;4970233;28;20042;-57
2023/03/29 11:33:01;;;;;;;7.50;3.05;;;13.90;99.90;;;;;;4974915;28;20645;-57
2023/03/29 11:35:47;;;;;;;5.07;2.88;;;14.00;99.90;;;;;;4973969;28;20042;-57
2023/03/29 11:38:31;;;;;;;8.57;2.97;;;14.10;99.90;;;;;;4975356;28;20454;-58
2023/03/29 11:41:27;;;;;;;5.93;3.03;;;14.30;99.90;;;;;;4978853;28;20078;-57
2023/03/29 11:44:19;;;;;;;6.32;2.63;;;14.40;99.90;;;;;;4975121;28;20066;-58
2023/03/29 11:46:57;;;;;;;5.97;3.15;;;14.70;99.90;;;;;;4971503;28;20046;-58
2023/03/29 11:49:37;;;;;;;11.43;3.45;;;14.80;99.90;;;;;;4970936;28;20043;-57
2023/03/29 11:52:28;;;;;;;8.73;3.13;;;14.80;99.90;;;;;;4972197;28;20498;-58
2023/03/29 11:55:17;;;;;;;5.25;2.60;;;14.80;99.90;;;;;;4976033;28;20117;-58
2023/03/29 11:57:50;;;;;;;6.30;2.90;;;14.70;99.90;;;;;;4973768;28;20042;-57
2023/03/29 12:00:42;;;;;;;;;;;14.60;99.90;;;;;;4974085;28;20391;-58
2023/03/29 12:03:37;;;;;;;5.75;3.25;;;14.60;99.90;;;;;;4939603;28;19926;-58
2023/03/29 12:06:36;;;;;;;7.15;2.83;;;14.40;99.90;;;;;;4973741;28;20057;-57
2023/03/29 12:09:27;;;;;;;8.55;3.00;;;14.40;99.90;;;;;;4976215;28;20053;-59
2023/03/29 12:12:16;;;;;;;5.82;2.92;;;14.40;99.90;;;;;;4974565;28;20407;-58
2023/03/29 12:15:03;;;;;;;7.30;2.67;;;14.60;99.90;;;;;;4963310;28;20519;-58
2023/03/29 12:17:38;;;;;;;9.07;3.30;;;14.80;99.90;;;;;;4978473;28;20034;-58
2023/03/29 12:20:14;;;;;;;8.75;2.63;;;14.90;99.90;;;;;;4971431;28;20075;-58
2023/03/29 12:22:40;;;;;;;8.10;3.13;;;15.00;99.90;;;;;;4973455;28;20030;-58
2023/03/29 12:25:11;;;;;;;5.80;2.88;;;15.00;99.90;;;;;;4977675;28;20044;-57
2023/03/29 12:27:51;;;;;;;7.05;3.03;;;15.00;99.90;;;;;;4968930;28;20398;-58
2023/03/29 12:30:41;;;;;;;7.43;3.10;;;15.00;99.90;;;;;;4969676;28;20176;-58
2023/03/29 12:33:50;;;;;;;8.68;3.28;;;15.00;80.90;;;;;;4971024;28;20481;-58
2023/03/29 12:36:29;;;;;;;6.63;3.08;;;14.90;99.90;;;;;;4975089;28;20041;-58
2023/03/29 12:38:55;;;;;;;6.07;2.90;;;15.10;99.90;;;;;;4985321;28;20264;-58
2023/03/29 12:41:23;;;;;;;8.38;3.40;;;15.00;99.90;;;;;;4981205;28;20342;-57
2023/03/29 12:43:49;;;;;;;8.15;3.63;;;14.90;1.00;;;;;;4979769;28;20533;-57
2023/03/29 12:46:17;;;;;;;5.25;2.60;;;14.90;99.90;;;;;;4976743;28;20355;-57
2023/03/29 12:48:45;;;;;;;9.65;2.90;;;15.10;99.90;;;;;;4973490;28;20042;-57
2023/03/29 12:51:19;;;;;;;7.05;2.92;;;15.10;99.90;;;;;;4978129;28;20042;-58
2023/03/29 12:53:51;;;;;;;5.60;2.55;;;15.10;99.90;;;;;;4976028;28;20158;-57
2023/03/29 12:56:20;;;;;;;5.28;2.65;;;15.00;99.90;;;;;;4981705;28;20446;-57
2023/03/29 12:58:58;;;;;;;5.70;2.75;;;15.10;99.90;;;;;;4983721;28;20510;-57
2023/03/29 13:01:33;;;;;;;4.28;2.58;;;15.00;99.90;;;;;;4982631;28;20042;-57
2023/03/29 13:03:59;;;;;;;5.55;2.70;;;14.90;99.90;;;;;;4980544;28;20247;-57
2023/03/29 13:06:32;;;;;;;5.65;3.00;;;15.00;99.90;;;;;;4980516;28;20680;-57
2023/03/29 13:08:59;;;;;;;;;;;15.10;99.90;;;;;;4981705;28;20041;-57
2023/03/29 13:11:34;;;;;;;7.57;2.85;;;15.00;99.90;;;;;;4981769;28;19917;-58